createdAt,value
2022-10-18T00:01:56.965Z,23.00
2022-10-18T00:07:00.506Z,21.20
2022-10-18T00:12:03.664Z,21.50
2022-10-18T00:17:06.377Z,18.60
2022-10-18T00:22:09.030Z,19.50
2022-10-18T00:27:11.942Z,26.90
2022-10-18T00:32:14.476Z,22.30
2022-10-18T00:37:17.617Z,24.30
2022-10-18T00:42:22.511Z,24.00
2022-10-18T00:47:25.019Z,26.10
2022-10-18T00:52:34.059Z,25.90
2022-10-18T00:57:38.228Z,23.60
2022-10-18T01:02:43.692Z,25.80
2022-10-18T01:07:52.146Z,23.10
2022-10-18T01:13:12.446Z,23.10
2022-10-18T01:18:39.736Z,23.30
2022-10-18T01:24:12.134Z,32.00
2022-10-18T01:29:29.570Z,25.90
2022-10-18T01:34:35.175Z,24.80
2022-10-18T01:39:39.937Z,25.30
2022-10-18T01:44:44.883Z,34.90
2022-10-18T01:49:47.472Z,45.50
2022-10-18T01:54:50.367Z,40.50
2022-10-18T02:00:06.744Z,32.80
2022-10-18T02:05:41.074Z,29.20
2022-10-18T02:10:48.557Z,27.90
2022-10-18T02:15:56.216Z,28.60
2022-10-18T02:21:00.329Z,26.50
2022-10-18T02:26:03.229Z,30.60
2022-10-18T02:31:31.224Z,26.60
2022-10-18T02:36:42.069Z,30.90
2022-10-18T02:41:44.503Z,22.80
2022-10-18T02:46:47.647Z,34.50
2022-10-18T02:51:50.089Z,37.60
2022-10-18T02:56:53.083Z,39.40
2022-10-18T03:01:55.622Z,58.60
2022-10-18T03:06:58.188Z,62.70
2022-10-18T03:12:00.703Z,83.50
2022-10-18T03:17:04.836Z,67.80
2022-10-18T03:22:07.451Z,52.80
2022-10-18T03:27:09.905Z,54.20
2022-10-18T03:32:12.318Z,45.30
2022-10-18T03:37:14.709Z,47.70
2022-10-18T03:42:17.237Z,45.10
2022-10-18T03:47:19.693Z,40.80
2022-10-18T03:52:22.110Z,46.10
2022-10-18T03:57:24.548Z,40.70
2022-10-18T04:02:27.669Z,36.30
2022-10-18T04:07:30.377Z,37.10
2022-10-18T04:12:33.444Z,32.90
2022-10-18T04:17:36.656Z,33.70
2022-10-18T04:22:39.084Z,36.60
2022-10-18T04:27:41.553Z,48.40
2022-10-18T04:32:44.117Z,58.90
2022-10-18T04:37:46.750Z,39.80
2022-10-18T04:42:49.537Z,37.30
2022-10-18T04:47:51.950Z,28.70
2022-10-18T04:52:54.394Z,37.60
2022-10-18T04:57:57.109Z,29.50
2022-10-18T05:02:59.527Z,34.60
2022-10-18T05:08:01.962Z,27.90
2022-10-18T05:13:04.465Z,31.60
2022-10-18T05:18:07.712Z,28.80
2022-10-18T05:23:10.911Z,31.00
2022-10-18T05:28:38.007Z,36.30
2022-10-18T05:33:36.338Z,49.50
2022-10-18T05:38:42.701Z,71.90
2022-10-18T05:43:45.531Z,64.20
2022-10-18T05:48:51.624Z,45.90
2022-10-18T05:53:54.688Z,44.40
2022-10-18T05:58:57.361Z,39.10
2022-10-18T06:03:59.847Z,27.00
2022-10-18T06:09:03.510Z,28.00
2022-10-18T06:14:07.971Z,29.50
2022-10-18T06:19:12.072Z,28.00
2022-10-18T06:24:14.509Z,28.70
2022-10-18T06:29:16.950Z,39.60
2022-10-18T06:34:19.469Z,41.30
2022-10-18T06:39:23.331Z,39.70
2022-10-18T06:44:25.975Z,36.10
2022-10-18T06:49:28.393Z,35.00
2022-10-18T06:54:30.797Z,30.20
2022-10-18T06:59:34.121Z,27.80
2022-10-18T07:04:36.576Z,28.90
2022-10-18T07:09:39.368Z,27.80
2022-10-18T07:14:41.775Z,34.10
2022-10-18T07:19:44.132Z,26.70
2022-10-18T07:24:46.809Z,25.70
2022-10-18T07:29:49.590Z,26.10
2022-10-18T07:34:52.180Z,23.80
2022-10-18T07:39:54.614Z,24.00
2022-10-18T07:44:57.179Z,25.60
2022-10-18T07:49:59.577Z,26.50
2022-10-18T07:55:02.017Z,23.60
2022-10-18T08:00:05.029Z,23.70
2022-10-18T08:05:07.794Z,20.90
2022-10-18T08:10:10.210Z,22.80
2022-10-18T08:15:12.880Z,23.30
2022-10-18T08:20:29.798Z,23.40
2022-10-18T08:30:38.126Z,22.60
2022-10-18T08:35:40.561Z,23.10
2022-10-18T08:40:44.368Z,24.40
2022-10-18T08:45:46.939Z,23.60
2022-10-18T08:50:50.838Z,19.80
2022-10-18T08:56:21.091Z,22.10
2022-10-18T09:07:10.986Z,15.60
2022-10-18T09:12:13.369Z,17.10
2022-10-18T09:17:34.419Z,18.50
2022-10-18T09:22:41.467Z,21.50
2022-10-18T09:27:52.796Z,16.70
2022-10-18T09:33:05.768Z,14.60
2022-10-18T09:38:12.526Z,11.70
2022-10-18T09:43:23.232Z,14.80
2022-10-18T09:54:21.960Z,12.90
2022-10-18T09:59:34.059Z,12.30
2022-10-18T10:04:36.425Z,10.10
2022-10-18T10:09:48.104Z,11.20
2022-10-18T10:14:50.504Z,11.90
2022-10-18T10:19:58.872Z,11.20
2022-10-18T10:25:02.012Z,8.70
2022-10-18T10:30:22.839Z,11.50
2022-10-18T10:41:02.137Z,14.00
2022-10-18T10:46:12.920Z,13.30
2022-10-18T10:51:27.287Z,11.50
2022-10-18T10:56:33.904Z,9.10
2022-10-18T11:01:37.252Z,9.80
2022-10-18T11:06:44.791Z,9.00
2022-10-18T11:11:56.654Z,8.60
2022-10-18T11:17:23.459Z,20.40
2022-10-18T11:22:27.770Z,10.30
2022-10-18T11:27:42.884Z,10.30
2022-10-18T11:33:14.614Z,11.00
2022-10-18T11:38:40.067Z,10.50
2022-10-18T11:44:02.944Z,12.30
2022-10-18T11:49:15.728Z,9.30
2022-10-18T11:54:30.073Z,8.60
2022-10-18T11:59:42.393Z,9.70
2022-10-18T12:05:05.946Z,12.70
2022-10-18T12:10:26.231Z,9.40
2022-10-18T12:15:41.135Z,11.30
2022-10-18T12:20:49.515Z,10.40
2022-10-18T12:25:56.834Z,12.70
2022-10-18T12:31:20.898Z,12.50
2022-10-18T12:36:44.909Z,11.10
2022-10-18T12:41:48.475Z,11.60
2022-10-18T12:46:55.659Z,13.30
2022-10-18T12:52:06.645Z,10.20
2022-10-18T12:57:23.238Z,11.80
2022-10-18T13:02:28.114Z,11.10
2022-10-18T13:07:32.231Z,12.70
2022-10-18T13:12:55.089Z,12.80
2022-10-18T13:18:10.075Z,13.70
2022-10-18T13:23:33.876Z,11.80
2022-10-18T13:29:02.770Z,15.20
2022-10-18T13:34:24.033Z,13.50
2022-10-18T13:39:27.742Z,13.50
2022-10-18T13:44:37.839Z,14.20
2022-10-18T13:49:40.420Z,15.60
2022-10-18T13:55:07.087Z,16.40
2022-10-18T14:00:49.063Z,13.40
2022-10-18T14:05:56.812Z,15.20
2022-10-18T14:11:24.212Z,13.70
2022-10-18T14:16:53.534Z,13.60
2022-10-18T14:22:19.783Z,13.30
2022-10-18T14:27:26.791Z,12.60
2022-10-18T14:32:32.059Z,13.60
2022-10-18T14:37:36.501Z,12.90
2022-10-18T14:42:50.803Z,12.60
2022-10-18T14:47:53.311Z,13.50
2022-10-18T14:52:55.944Z,15.50
2022-10-18T14:57:59.274Z,14.70
2022-10-18T15:03:05.135Z,14.50
2022-10-18T15:08:09.613Z,11.60
2022-10-18T15:13:13.625Z,14.00
2022-10-18T15:18:24.839Z,14.60
2022-10-18T15:23:31.916Z,13.70
2022-10-18T15:28:40.063Z,12.80
2022-10-18T15:33:42.584Z,14.40
2022-10-18T15:38:47.604Z,16.40
2022-10-18T15:44:10.274Z,12.70
2022-10-18T15:49:47.316Z,14.20
2022-10-18T15:54:49.679Z,13.30
2022-10-18T16:00:02.172Z,15.30
2022-10-18T16:05:05.347Z,15.30
2022-10-18T16:10:14.538Z,15.90
2022-10-18T16:15:17.113Z,17.20
2022-10-18T16:20:24.920Z,15.70
2022-10-18T16:25:27.535Z,14.30
2022-10-18T16:30:32.954Z,15.40
2022-10-18T16:35:35.856Z,18.60
2022-10-18T16:40:41.168Z,15.20
2022-10-18T16:45:44.598Z,15.00
2022-10-18T16:50:47.930Z,14.10
2022-10-18T16:55:57.301Z,15.50
2022-10-18T17:01:01.894Z,17.80
2022-10-18T17:06:13.358Z,15.40
2022-10-18T17:11:16.920Z,13.90
2022-10-18T17:16:38.854Z,13.60
2022-10-18T17:21:41.620Z,16.40
2022-10-18T17:26:44.353Z,21.80
2022-10-18T17:31:47.853Z,16.60
2022-10-18T17:36:50.338Z,17.80
2022-10-18T17:41:52.806Z,14.60
2022-10-18T17:46:56.292Z,14.50
2022-10-18T17:52:01.150Z,16.00
2022-10-18T17:57:05.736Z,14.60
2022-10-18T18:02:10.799Z,14.40
2022-10-18T18:07:13.519Z,14.70
2022-10-18T18:12:16.280Z,13.00
2022-10-18T18:17:28.568Z,14.50
2022-10-18T18:22:41.651Z,13.70
2022-10-18T18:27:45.907Z,13.30
2022-10-18T18:32:48.733Z,12.70
2022-10-18T18:37:51.272Z,18.60
2022-10-18T18:43:12.139Z,12.30
2022-10-18T18:48:19.094Z,11.20
2022-10-18T18:53:25.989Z,16.60
2022-10-18T18:58:33.909Z,14.90
2022-10-18T19:03:38.589Z,14.20
2022-10-18T19:08:44.562Z,12.00
2022-10-18T19:13:48.749Z,10.50
2022-10-18T19:18:52.073Z,10.20
2022-10-18T19:23:56.497Z,11.70
2022-10-18T19:29:07.334Z,12.20
2022-10-18T19:34:12.577Z,13.50
2022-10-18T19:39:18.785Z,10.20
2022-10-18T19:44:23.051Z,9.80
2022-10-18T19:49:26.177Z,9.10
2022-10-18T19:54:28.657Z,8.50
2022-10-18T19:59:31.273Z,13.50
2022-10-18T20:04:35.001Z,10.70
2022-10-18T20:09:38.175Z,9.70
2022-10-18T20:14:40.678Z,11.60
2022-10-18T20:19:43.589Z,10.70
2022-10-18T20:24:46.601Z,9.20
2022-10-18T20:29:51.546Z,7.70
2022-10-18T20:34:54.292Z,7.40
2022-10-18T20:39:56.737Z,10.00
2022-10-18T20:44:59.288Z,10.70
2022-10-18T20:50:02.458Z,9.40
2022-10-18T20:55:06.489Z,12.70
2022-10-18T21:00:11.516Z,7.10
2022-10-18T21:05:16.430Z,13.60
2022-10-18T21:10:18.838Z,12.60
2022-10-18T21:15:21.291Z,10.40
2022-10-18T21:20:24.816Z,11.00
2022-10-18T21:25:27.190Z,12.00
2022-10-18T21:30:29.973Z,13.70
2022-10-18T21:35:38.917Z,11.30
2022-10-18T21:40:44.457Z,8.20
2022-10-18T21:45:46.825Z,9.50
2022-10-18T21:50:50.034Z,13.40
2022-10-18T21:55:52.433Z,15.70
2022-10-18T22:00:54.894Z,9.60
2022-10-18T22:06:07.843Z,13.20
2022-10-18T22:11:12.338Z,11.20
2022-10-18T22:16:16.357Z,9.70
2022-10-18T22:21:20.140Z,12.30
2022-10-18T22:26:28.874Z,10.80
2022-10-18T22:31:34.783Z,7.30
2022-10-18T22:36:38.077Z,12.50
2022-10-18T22:41:41.242Z,9.30
2022-10-18T22:46:43.676Z,13.00
2022-10-18T22:51:46.123Z,12.70
2022-10-18T22:56:48.531Z,11.00
2022-10-18T23:01:51.200Z,14.40
2022-10-18T23:06:53.631Z,16.70
2022-10-18T23:11:56.120Z,6.90
2022-10-18T23:16:58.613Z,10.70
2022-10-18T23:22:01.021Z,15.80
2022-10-18T23:27:03.494Z,9.40
2022-10-18T23:32:05.932Z,10.00
2022-10-18T23:37:08.685Z,9.70
2022-10-18T23:42:11.279Z,10.80
2022-10-18T23:47:14.842Z,10.80
2022-10-18T23:52:17.304Z,12.50
2022-10-18T23:57:19.663Z,9.80
